createdAt,value
2018-07-08T00:02:02.590Z,20.03
2018-07-08T00:04:31.604Z,19.83
2018-07-08T00:07:06.328Z,19.87
2018-07-08T00:09:35.247Z,19.85
2018-07-08T00:12:04.185Z,19.89
2018-07-08T00:14:33.096Z,19.90
2018-07-08T00:17:02.093Z,19.99
2018-07-08T00:19:31.025Z,20.08
2018-07-08T00:21:59.955Z,19.98
2018-07-08T00:24:28.881Z,20.03
2018-07-08T00:26:57.869Z,20.01
2018-07-08T00:29:26.795Z,19.91
2018-07-08T00:31:55.734Z,19.89
2018-07-08T00:34:24.646Z,20.00
2018-07-08T00:36:53.571Z,19.99
2018-07-08T00:39:22.499Z,20.15
2018-07-08T00:41:51.556Z,20.17
2018-07-08T00:44:20.502Z,20.14
2018-07-08T00:46:49.466Z,19.90
2018-07-08T00:49:18.419Z,19.83
2018-07-08T00:51:47.310Z,19.64
2018-07-08T00:54:16.263Z,19.82
2018-07-08T00:56:45.215Z,19.70
2018-07-08T00:59:14.247Z,19.62
2018-07-08T01:01:43.190Z,19.51
2018-07-08T01:04:12.066Z,19.48
2018-07-08T01:06:41.001Z,19.33
2018-07-08T01:09:09.915Z,19.41
2018-07-08T01:11:38.888Z,19.64
2018-07-08T01:14:07.897Z,19.75
2018-07-08T01:16:36.813Z,19.57
2018-07-08T01:19:05.793Z,19.55
2018-07-08T01:21:34.781Z,19.64
2018-07-08T01:24:03.769Z,19.68
2018-07-08T01:26:32.754Z,19.71
2018-07-08T01:29:02.061Z,19.52
2018-07-08T01:31:30.968Z,19.47
2018-07-08T01:33:59.893Z,19.39
2018-07-08T01:36:28.776Z,19.46
2018-07-08T01:38:57.668Z,19.56
2018-07-08T01:41:26.586Z,19.44
2018-07-08T01:43:55.486Z,19.44
2018-07-08T01:46:24.421Z,19.54
2018-07-08T01:48:53.357Z,19.59
2018-07-08T01:51:22.264Z,19.67
2018-07-08T01:53:51.278Z,19.77
2018-07-08T01:56:20.173Z,19.82
2018-07-08T01:58:49.100Z,19.48
2018-07-08T02:01:18.033Z,19.42
2018-07-08T02:03:46.953Z,19.38
2018-07-08T02:06:18.788Z,19.41
2018-07-08T02:08:47.897Z,19.47
2018-07-08T02:11:16.877Z,19.47
2018-07-08T02:13:45.816Z,19.42
2018-07-08T02:16:14.791Z,19.27
2018-07-08T02:18:43.757Z,19.31
2018-07-08T02:21:12.760Z,19.47
2018-07-08T02:23:41.705Z,19.63
2018-07-08T02:26:10.655Z,19.50
2018-07-08T02:28:39.696Z,19.60
2018-07-08T02:31:08.705Z,19.61
2018-07-08T02:33:37.639Z,19.63
2018-07-08T02:36:06.608Z,19.56
2018-07-08T02:38:35.543Z,19.64
2018-07-08T02:41:04.485Z,19.66
2018-07-08T02:43:33.540Z,19.63
2018-07-08T02:46:02.532Z,19.60
2018-07-08T02:48:31.532Z,19.59
2018-07-08T02:51:00.479Z,19.53
2018-07-08T02:53:29.387Z,19.51
2018-07-08T02:55:58.291Z,19.59
2018-07-08T02:58:27.350Z,19.60
2018-07-08T03:00:56.290Z,19.61
2018-07-08T03:03:25.251Z,19.61
2018-07-08T03:05:54.213Z,19.57
2018-07-08T03:08:23.101Z,19.38
2018-07-08T03:10:52.125Z,19.37
2018-07-08T03:13:21.045Z,19.29
2018-07-08T03:15:50.075Z,19.39
2018-07-08T03:18:19.097Z,19.43
2018-07-08T03:20:47.987Z,19.38
2018-07-08T03:23:16.913Z,19.36
2018-07-08T03:25:45.827Z,19.29
2018-07-08T03:28:14.815Z,19.25
2018-07-08T03:30:43.751Z,19.15
2018-07-08T03:33:12.677Z,19.03
2018-07-08T03:35:41.587Z,19.03
2018-07-08T03:38:10.541Z,19.01
2018-07-08T03:40:39.439Z,19.08
2018-07-08T03:43:08.399Z,19.18
2018-07-08T03:45:37.333Z,19.08
2018-07-08T03:48:06.287Z,19.00
2018-07-08T03:50:35.787Z,19.10
2018-07-08T03:53:04.755Z,19.04
2018-07-08T03:55:33.701Z,19.10
2018-07-08T03:58:02.727Z,19.12
2018-07-08T04:00:32.101Z,19.12
2018-07-08T04:03:01.019Z,19.08
2018-07-08T04:05:29.958Z,19.00
2018-07-08T04:07:59.133Z,18.99
2018-07-08T04:10:28.073Z,19.03
2018-07-08T04:12:56.956Z,19.11
2018-07-08T04:15:25.853Z,19.17
2018-07-08T04:18:02.090Z,19.12
2018-07-08T04:20:30.991Z,19.14
2018-07-08T04:22:59.972Z,19.16
2018-07-08T04:25:28.938Z,19.18
2018-07-08T04:27:58.044Z,19.20
2018-07-08T04:30:27.048Z,19.19
2018-07-08T04:32:55.979Z,19.21
2018-07-08T04:35:25.237Z,19.05
2018-07-08T04:37:54.167Z,18.83
2018-07-08T04:40:23.141Z,18.92
2018-07-08T04:42:52.159Z,18.91
2018-07-08T04:45:21.069Z,19.05
2018-07-08T04:47:49.999Z,18.90
2018-07-08T04:50:18.903Z,18.93
2018-07-08T04:52:47.908Z,19.03
2018-07-08T04:55:16.809Z,18.99
2018-07-08T04:57:45.793Z,18.98
2018-07-08T05:00:14.791Z,18.83
2018-07-08T05:02:43.740Z,18.83
2018-07-08T05:05:12.764Z,18.89
2018-07-08T05:07:41.674Z,18.99
2018-07-08T05:10:10.632Z,19.12
2018-07-08T05:12:39.566Z,19.08
2018-07-08T05:15:08.452Z,19.14
2018-07-08T05:17:37.452Z,19.10
2018-07-08T05:20:06.434Z,19.01
2018-07-08T05:22:35.423Z,19.04
2018-07-08T05:25:04.477Z,19.11
2018-07-08T05:27:33.421Z,19.09
2018-07-08T05:30:02.692Z,19.12
2018-07-08T05:32:31.601Z,19.07
2018-07-08T05:35:00.567Z,18.96
2018-07-08T05:37:29.481Z,19.00
2018-07-08T05:39:58.404Z,19.04
2018-07-08T05:42:27.310Z,19.05
2018-07-08T05:44:56.244Z,19.11
2018-07-08T05:47:25.158Z,19.07
2018-07-08T05:49:54.120Z,18.99
2018-07-08T05:52:28.630Z,18.96
2018-07-08T05:54:57.566Z,18.92
2018-07-08T05:57:26.498Z,18.98
2018-07-08T05:59:55.429Z,19.12
2018-07-08T06:02:24.395Z,19.18
2018-07-08T06:04:53.335Z,19.21
2018-07-08T06:07:22.308Z,19.21
2018-07-08T06:09:51.300Z,19.26
2018-07-08T06:12:20.204Z,19.33
2018-07-08T06:14:49.177Z,19.52
2018-07-08T06:17:18.133Z,19.54
2018-07-08T06:19:47.087Z,19.55
2018-07-08T06:22:16.058Z,19.83
2018-07-08T06:24:45.035Z,19.88
2018-07-08T06:27:19.543Z,19.76
2018-07-08T06:29:48.498Z,19.81
2018-07-08T06:32:17.461Z,19.79
2018-07-08T06:34:46.426Z,19.83
2018-07-08T06:37:15.359Z,19.87
2018-07-08T06:39:44.319Z,19.95
2018-07-08T06:42:13.237Z,20.02
2018-07-08T06:44:42.184Z,20.29
2018-07-08T06:47:11.143Z,20.72
2018-07-08T06:49:40.084Z,20.87
2018-07-08T06:52:09.121Z,21.12
2018-07-08T06:54:37.988Z,21.41
2018-07-08T06:57:06.999Z,21.65
2018-07-08T06:59:35.977Z,21.87
2018-07-08T07:02:05.072Z,22.01
2018-07-08T07:04:33.963Z,22.39
2018-07-08T07:07:02.900Z,22.28
2018-07-08T07:09:31.860Z,22.59
2018-07-08T07:12:00.801Z,22.93
2018-07-08T07:14:29.738Z,22.89
2018-07-08T07:16:58.730Z,23.07
2018-07-08T07:19:27.597Z,23.27
2018-07-08T07:21:56.551Z,23.28
2018-07-08T07:24:30.944Z,23.51
2018-07-08T07:26:59.936Z,23.19
2018-07-08T07:29:28.830Z,23.81
2018-07-08T07:31:57.728Z,24.51
2018-07-08T07:34:26.663Z,25.01
2018-07-08T07:36:55.847Z,25.15
2018-07-08T07:39:24.780Z,25.07
2018-07-08T07:41:53.764Z,25.27
2018-07-08T07:44:22.720Z,25.69
2018-07-08T07:46:51.676Z,25.90
2018-07-08T07:49:20.582Z,25.46
2018-07-08T07:51:49.502Z,24.99
2018-07-08T07:54:18.412Z,24.86
2018-07-08T07:56:47.352Z,24.39
2018-07-08T07:59:16.316Z,24.50
2018-07-08T08:01:45.366Z,24.55
2018-07-08T08:04:14.340Z,24.59
2018-07-08T08:06:43.325Z,24.65
2018-07-08T08:09:12.288Z,24.08
2018-07-08T08:11:41.171Z,23.94
2018-07-08T08:14:10.245Z,23.72
2018-07-08T08:16:39.181Z,24.01
2018-07-08T08:19:08.039Z,24.08
2018-07-08T08:21:36.969Z,24.05
2018-07-08T08:24:05.891Z,23.97
2018-07-08T08:26:40.473Z,23.73
2018-07-08T08:29:14.990Z,23.81
2018-07-08T08:31:43.929Z,23.88
2018-07-08T08:35:17.221Z,24.09
2018-07-08T08:37:50.584Z,23.88
2018-07-08T08:40:20.753Z,23.98
2018-07-08T08:42:49.709Z,24.11
2018-07-08T08:45:19.565Z,23.95
2018-07-08T08:47:48.519Z,24.02
2018-07-08T08:50:17.762Z,24.14
2018-07-08T08:52:46.703Z,24.08
2018-07-08T08:55:15.878Z,23.74
2018-07-08T08:57:44.760Z,23.01
2018-07-08T09:00:15.624Z,22.79
2018-07-08T09:02:44.504Z,23.03
2018-07-08T09:05:13.439Z,23.38
2018-07-08T09:07:42.373Z,23.13
2018-07-08T09:10:11.310Z,22.64
2018-07-08T09:12:40.246Z,22.79
2018-07-08T09:15:09.195Z,22.93
2018-07-08T09:17:38.113Z,23.21
2018-07-08T09:20:07.140Z,23.31
2018-07-08T09:22:36.054Z,23.34
2018-07-08T09:25:05.788Z,23.28
2018-07-08T09:27:34.700Z,23.04
2018-07-08T09:30:03.669Z,23.00
2018-07-08T09:32:32.584Z,22.54
2018-07-08T09:35:01.521Z,22.70
2018-07-08T09:37:30.423Z,23.07
2018-07-08T09:39:59.306Z,23.22
2018-07-08T09:42:28.207Z,23.05
2018-07-08T09:44:57.090Z,22.89
2018-07-08T09:47:26.088Z,22.89
2018-07-08T09:49:55.012Z,22.76
2018-07-08T09:52:23.936Z,22.90
2018-07-08T09:54:52.899Z,22.95
2018-07-08T09:57:21.928Z,22.88
2018-07-08T09:59:50.885Z,23.14
2018-07-08T10:02:19.813Z,23.27
2018-07-08T10:04:48.788Z,23.65
2018-07-08T10:07:17.676Z,23.42
2018-07-08T10:09:46.684Z,23.59
2018-07-08T10:12:15.624Z,23.41
2018-07-08T10:14:44.593Z,23.24
2018-07-08T10:17:13.500Z,23.25
2018-07-08T10:19:42.472Z,23.37
2018-07-08T10:22:11.285Z,23.70
2018-07-08T10:24:40.269Z,23.82
2018-07-08T10:27:19.262Z,23.26
2018-07-08T10:29:48.205Z,23.42
2018-07-08T10:32:17.093Z,23.48
2018-07-08T10:34:46.043Z,23.24
2018-07-08T10:37:15.825Z,23.19
2018-07-08T10:39:44.783Z,23.29
2018-07-08T10:42:13.707Z,23.51
2018-07-08T10:44:42.635Z,23.44
2018-07-08T10:47:11.564Z,23.41
2018-07-08T10:49:40.488Z,23.53
2018-07-08T10:52:09.402Z,23.64
2018-07-08T10:54:38.337Z,23.24
2018-07-08T10:57:07.289Z,23.41
2018-07-08T10:59:36.222Z,23.44
2018-07-08T11:02:05.107Z,23.55
2018-07-08T11:04:34.030Z,23.63
2018-07-08T11:07:02.976Z,23.41
2018-07-08T11:09:31.933Z,23.45
2018-07-08T11:12:00.865Z,23.41
2018-07-08T11:14:29.839Z,23.52
2018-07-08T11:17:04.369Z,23.45
2018-07-08T11:19:33.274Z,23.38
2018-07-08T11:22:02.168Z,23.60
2018-07-08T11:24:31.073Z,23.77
2018-07-08T11:27:00.000Z,23.76
2018-07-08T11:29:34.564Z,23.59
2018-07-08T11:32:03.461Z,23.46
2018-07-08T11:34:32.377Z,23.41
2018-07-08T11:37:01.262Z,23.33
2018-07-08T11:39:30.215Z,23.39
2018-07-08T11:41:59.131Z,23.42
2018-07-08T11:44:28.098Z,23.27
2018-07-08T11:46:57.032Z,23.27
2018-07-08T11:49:25.944Z,23.23
2018-07-08T11:51:55.133Z,23.28
2018-07-08T11:54:24.092Z,23.33
2018-07-08T11:56:53.419Z,23.34
2018-07-08T11:59:22.405Z,23.22
2018-07-08T12:01:51.347Z,23.29
2018-07-08T12:04:20.281Z,23.45
2018-07-08T12:06:49.376Z,23.62
2018-07-08T12:09:18.363Z,23.47
2018-07-08T12:11:47.289Z,23.48
2018-07-08T12:14:16.185Z,23.47
2018-07-08T12:16:45.091Z,23.51
2018-07-08T12:19:14.006Z,23.57
2018-07-08T12:21:43.000Z,23.48
2018-07-08T12:24:12.018Z,23.44
2018-07-08T12:26:46.400Z,23.61
2018-07-08T12:29:15.350Z,23.41
2018-07-08T12:31:49.931Z,23.33
2018-07-08T12:34:18.833Z,23.41
2018-07-08T12:36:47.777Z,23.71
2018-07-08T12:39:16.721Z,23.80
2018-07-08T12:41:45.627Z,23.77
2018-07-08T12:44:14.637Z,23.75
2018-07-08T12:46:43.535Z,23.85
2018-07-08T12:49:12.501Z,23.77
2018-07-08T12:51:41.407Z,23.90
2018-07-08T12:54:10.373Z,23.95
2018-07-08T12:56:39.278Z,23.99
2018-07-08T12:59:08.247Z,23.79
2018-07-08T13:01:37.160Z,23.76
2018-07-08T13:04:11.679Z,23.78
2018-07-08T13:06:46.314Z,23.76
2018-07-08T13:09:15.233Z,23.54
2018-07-08T13:11:44.239Z,23.62
2018-07-08T13:14:13.157Z,23.79
2018-07-08T13:16:42.079Z,23.48
2018-07-08T13:19:16.475Z,23.35
2018-07-08T13:21:45.388Z,23.16
2018-07-08T13:24:14.363Z,23.13
2018-07-08T13:26:48.837Z,23.21
2018-07-08T13:29:17.793Z,23.32
2018-07-08T13:31:52.401Z,23.37
2018-07-08T13:34:21.683Z,23.39
2018-07-08T13:36:50.624Z,23.26
2018-07-08T13:39:19.733Z,23.35
2018-07-08T13:41:48.561Z,23.34
2018-07-08T13:44:17.511Z,23.31
2018-07-08T13:46:46.551Z,23.40
2018-07-08T13:49:15.453Z,23.22
2018-07-08T13:51:44.437Z,23.05
2018-07-08T13:54:13.374Z,23.27
2018-07-08T13:56:42.320Z,23.34
2018-07-08T13:59:11.276Z,23.25
2018-07-08T14:01:40.207Z,23.31
2018-07-08T14:04:09.145Z,23.22
2018-07-08T14:06:38.089Z,23.14
2018-07-08T14:09:07.508Z,23.39
2018-07-08T14:11:36.959Z,23.64
2018-07-08T14:14:05.913Z,23.77
2018-07-08T14:16:34.875Z,23.52
2018-07-08T14:19:03.816Z,23.16
2018-07-08T14:21:32.797Z,23.34
2018-07-08T14:24:01.727Z,23.51
2018-07-08T14:26:30.677Z,23.38
2018-07-08T14:28:59.575Z,23.20
2018-07-08T14:31:28.633Z,23.38
2018-07-08T14:33:57.629Z,23.27
2018-07-08T14:36:26.527Z,23.48
2018-07-08T14:39:00.953Z,23.59
2018-07-08T14:41:29.900Z,23.36
2018-07-08T14:44:03.768Z,23.27
2018-07-08T14:46:32.801Z,23.13
2018-07-08T14:49:01.748Z,23.38
2018-07-08T14:51:30.705Z,23.38
2018-07-08T14:53:59.711Z,23.39
2018-07-08T14:56:28.707Z,23.43
2018-07-08T14:58:57.729Z,23.49
2018-07-08T15:01:26.689Z,23.48
2018-07-08T15:04:01.233Z,23.53
2018-07-08T15:06:30.185Z,23.37
2018-07-08T15:09:03.391Z,23.36
2018-07-08T15:11:32.287Z,23.43
2018-07-08T15:14:01.322Z,23.07
2018-07-08T15:16:30.357Z,23.25
2018-07-08T15:18:59.298Z,23.41
2018-07-08T15:21:28.343Z,23.47
2018-07-08T15:23:57.242Z,23.01
2018-07-08T15:26:32.827Z,23.33
2018-07-08T15:29:01.752Z,23.50
2018-07-08T15:31:30.657Z,23.55
2018-07-08T15:33:59.607Z,23.47
2018-07-08T15:36:28.590Z,23.55
2018-07-08T15:39:02.981Z,23.65
2018-07-08T15:41:37.507Z,23.56
2018-07-08T15:44:06.551Z,23.50
2018-07-08T15:46:35.461Z,23.40
2018-07-08T15:49:04.425Z,23.14
2018-07-08T15:51:33.372Z,23.31
2018-07-08T15:54:02.365Z,23.38
2018-07-08T15:56:31.208Z,23.54
2018-07-08T15:59:00.249Z,23.51
2018-07-08T16:01:29.140Z,23.55
2018-07-08T16:03:58.046Z,23.42
2018-07-08T16:06:27.074Z,23.41
2018-07-08T16:08:56.060Z,23.38
2018-07-08T16:11:25.022Z,23.16
2018-07-08T16:13:54.140Z,23.14
2018-07-08T16:16:28.662Z,23.18
2018-07-08T16:18:57.654Z,23.01
2018-07-08T16:21:26.592Z,22.87
2018-07-08T16:23:55.528Z,23.00
2018-07-08T16:26:24.474Z,23.17
2018-07-08T16:28:53.592Z,23.00
2018-07-08T16:31:22.568Z,23.09
2018-07-08T16:33:51.614Z,23.00
2018-07-08T16:36:20.577Z,23.12
2018-07-08T16:38:49.524Z,23.19
2018-07-08T16:41:18.547Z,23.00
2018-07-08T16:43:47.516Z,22.97
2018-07-08T16:46:17.426Z,22.90
2018-07-08T16:48:46.339Z,22.75
2018-07-08T16:51:15.280Z,22.88
2018-07-08T16:53:44.238Z,22.97
2018-07-08T16:56:13.259Z,22.97
2018-07-08T16:58:42.142Z,22.97
2018-07-08T17:01:11.084Z,22.90
2018-07-08T17:03:40.044Z,23.02
2018-07-08T17:06:08.969Z,23.01
2018-07-08T17:08:37.908Z,23.04
2018-07-08T17:11:06.792Z,23.02
2018-07-08T17:13:35.992Z,22.81
2018-07-08T17:16:10.650Z,22.69
2018-07-08T17:18:45.068Z,22.79
2018-07-08T17:21:14.173Z,22.96
2018-07-08T17:23:43.050Z,22.83
2018-07-08T17:26:11.960Z,22.91
2018-07-08T17:28:40.971Z,22.97
2018-07-08T17:31:09.906Z,22.87
2018-07-08T17:33:38.871Z,22.87
2018-07-08T17:36:07.884Z,23.01
2018-07-08T17:38:36.787Z,23.02
2018-07-08T17:41:06.146Z,23.00
2018-07-08T17:43:35.120Z,22.96
2018-07-08T17:46:04.383Z,22.79
2018-07-08T17:48:33.334Z,22.85
2018-07-08T17:51:02.330Z,22.77
2018-07-08T17:53:31.270Z,22.73
2018-07-08T17:56:00.192Z,22.83
2018-07-08T17:58:29.112Z,22.75
2018-07-08T18:00:58.106Z,22.68
2018-07-08T18:03:27.020Z,22.66
2018-07-08T18:05:55.957Z,22.62
2018-07-08T18:08:24.950Z,22.74
2018-07-08T18:10:53.904Z,22.74
2018-07-08T18:13:22.845Z,22.69
2018-07-08T18:15:57.415Z,22.50
2018-07-08T18:18:26.368Z,22.35
2018-07-08T18:21:01.994Z,22.44
2018-07-08T18:23:30.890Z,22.49
2018-07-08T18:25:59.844Z,22.54
2018-07-08T18:28:28.934Z,22.43
2018-07-08T18:31:01.720Z,22.45
2018-07-08T18:33:30.727Z,22.47
2018-07-08T18:35:59.660Z,22.49
2018-07-08T18:38:28.668Z,22.36
2018-07-08T18:40:57.663Z,22.42
2018-07-08T18:43:26.604Z,22.28
2018-07-08T18:45:55.554Z,22.32
2018-07-08T18:48:25.622Z,22.35
2018-07-08T18:50:54.554Z,22.31
2018-07-08T18:53:23.585Z,22.30
2018-07-08T18:55:52.604Z,22.18
2018-07-08T18:58:21.562Z,22.00
2018-07-08T19:00:50.505Z,21.97
2018-07-08T19:03:25.079Z,21.99
2018-07-08T19:05:53.982Z,21.90
2018-07-08T19:08:22.924Z,21.85
2018-07-08T19:10:52.019Z,21.73
2018-07-08T19:13:21.084Z,21.69
2018-07-08T19:15:50.103Z,21.60
2018-07-08T19:18:19.056Z,21.56
2018-07-08T19:20:48.038Z,21.49
2018-07-08T19:23:16.941Z,21.52
2018-07-08T19:25:45.875Z,21.44
2018-07-08T19:28:20.306Z,21.52
2018-07-08T19:30:54.672Z,21.29
2018-07-08T19:33:23.675Z,21.36
2018-07-08T19:35:52.578Z,21.17
2018-07-08T19:38:21.566Z,21.30
2018-07-08T19:40:51.136Z,21.34
2018-07-08T19:43:20.126Z,21.36
2018-07-08T19:45:49.172Z,21.42
2018-07-08T19:48:18.196Z,21.47
2018-07-08T19:50:47.265Z,21.50
2018-07-08T19:53:16.182Z,21.46
2018-07-08T19:55:45.099Z,21.38
2018-07-08T19:58:14.066Z,21.36
2018-07-08T20:00:42.989Z,21.38
2018-07-08T20:03:11.988Z,21.48
2018-07-08T20:05:40.935Z,21.50
2018-07-08T20:08:09.892Z,21.53
2018-07-08T20:10:38.792Z,21.39
2018-07-08T20:13:08.177Z,21.26
2018-07-08T20:15:37.160Z,21.15
2018-07-08T20:18:06.138Z,21.16
2018-07-08T20:20:35.068Z,21.21
2018-07-08T20:23:04.011Z,21.18
2018-07-08T20:25:32.931Z,21.24
2018-07-08T20:28:07.316Z,21.37
2018-07-08T20:30:41.729Z,21.53
2018-07-08T20:33:10.674Z,21.60
2018-07-08T20:35:39.613Z,21.49
2018-07-08T20:38:08.650Z,21.42
2018-07-08T20:40:37.982Z,21.45
2018-07-08T20:43:06.984Z,21.49
2018-07-08T20:45:35.914Z,21.34
2018-07-08T20:48:04.937Z,21.15
2018-07-08T20:50:33.858Z,21.23
2018-07-08T20:53:02.810Z,21.15
2018-07-08T20:55:31.750Z,21.08
2018-07-08T20:58:00.758Z,21.01
2018-07-08T21:00:35.236Z,21.07
2018-07-08T21:03:04.152Z,20.93
2018-07-08T21:05:33.090Z,20.79
2018-07-08T21:08:01.992Z,20.87
2018-07-08T21:10:34.064Z,20.93
2018-07-08T21:13:03.391Z,21.01
2018-07-08T21:15:32.327Z,20.91
2018-07-08T21:18:01.274Z,20.69
2018-07-08T21:20:30.227Z,20.77
2018-07-08T21:22:59.393Z,20.75
2018-07-08T21:25:28.353Z,20.62
2018-07-08T21:27:57.311Z,20.52
2018-07-08T21:30:26.954Z,20.53
2018-07-08T21:32:55.906Z,20.49
2018-07-08T21:35:24.833Z,20.52
2018-07-08T21:37:53.837Z,20.48
2018-07-08T21:40:22.810Z,20.39
2018-07-08T21:42:51.940Z,20.44
2018-07-08T21:45:20.882Z,20.37
2018-07-08T21:47:50.993Z,20.45
2018-07-08T21:50:19.917Z,20.48
2018-07-08T21:52:48.825Z,20.50
2018-07-08T21:55:17.744Z,20.37
2018-07-08T21:57:46.720Z,20.59
2018-07-08T22:00:15.638Z,20.46
2018-07-08T22:02:45.221Z,20.47
2018-07-08T22:05:14.230Z,20.29
2018-07-08T22:07:48.427Z,20.36
2018-07-08T22:10:17.465Z,20.38
2018-07-08T22:12:46.380Z,20.28
2018-07-08T22:15:15.295Z,20.39
2018-07-08T22:17:44.209Z,20.38
2018-07-08T22:20:13.129Z,20.27
2018-07-08T22:22:42.011Z,20.29
2018-07-08T22:25:10.942Z,20.21
2018-07-08T22:27:39.910Z,20.14
2018-07-08T22:30:08.821Z,20.13
2018-07-08T22:32:37.789Z,20.10
2018-07-08T22:35:06.766Z,20.20
2018-07-08T22:37:35.710Z,19.96
2018-07-08T22:40:04.643Z,19.73
2018-07-08T22:42:33.628Z,19.66
2018-07-08T22:45:02.637Z,19.68
2018-07-08T22:47:36.986Z,19.73
2018-07-08T22:50:05.996Z,19.75
2018-07-08T22:52:34.917Z,19.84
2018-07-08T22:55:03.931Z,19.86
2018-07-08T22:57:32.874Z,19.77
2018-07-08T23:00:13.092Z,19.66
2018-07-08T23:02:43.887Z,19.77
2018-07-08T23:05:13.034Z,19.89
2018-07-08T23:07:42.256Z,19.88
2018-07-08T23:10:12.602Z,19.77
2018-07-08T23:12:41.551Z,19.81
2018-07-08T23:15:10.510Z,19.58
2018-07-08T23:17:43.598Z,19.52
2018-07-08T23:20:12.552Z,19.63
2018-07-08T23:22:52.688Z,19.75
2018-07-08T23:25:21.589Z,19.72
2018-07-08T23:27:50.650Z,19.61
2018-07-08T23:30:19.520Z,19.47
2018-07-08T23:32:48.591Z,19.60
2018-07-08T23:35:17.786Z,19.28
2018-07-08T23:37:46.744Z,19.31
2018-07-08T23:40:15.714Z,19.25
2018-07-08T23:42:44.608Z,19.19
2018-07-08T23:45:17.884Z,19.28
2018-07-08T23:47:52.310Z,19.17
2018-07-08T23:50:21.231Z,19.31
2018-07-08T23:52:50.178Z,19.37
2018-07-08T23:55:19.092Z,19.37
2018-07-08T23:57:48.048Z,19.11
